Maryland METAR Reports


Distance/Direction noted is from Ellicott City, MD as the crow flies

KCBE - Cumberland - 118 miles WNW
Updated: Sat, 10/25/2014 5:39 AM
Clear
Clear
 Wind from calm
Wind: Calm
Temperature: 37°F
Dew Point: 37°F
Humidity: 100%
Barometer: 30.02 inHg
Clouds: Clear
Visibility: 7 miles
2014/10/25 09:39 KCBE 250939Z AUTO 00000KT 7SM CLR 03/03 A3002 RMK AO1
KHGR - Hagerstown - 57 miles NW
Updated: Sat, 10/25/2014 5:53 AM
Clear
Clear
 Wind from WSW
Wind: WSW 7 mph
Temperature: 52°F
Dew Point: 37°F
Humidity: 58%
Barometer: 29.95 inHg
Clouds: Clear
Visibility: 10 miles
2014/10/25 09:53 KHGR 250953Z AUTO 24006KT 10SM CLR 11/03 A2995 RMK AO2 SLP152 T01110033
 
KFDK - Frederick - 34 miles NW
Updated: Sat, 10/25/2014 5:35 AM
Light snow, Clear
Light snow, Clear
 Wind from W
Wind: W 5 mph
Temperature: 48°F
Wind Chill: 46°F
Dew Point: 39°F
Humidity: 71%
Barometer: 29.98 inHg
Summary: Light Snow
Clouds: Clear
Visibility: 10 miles
2014/10/25 09:35 KFDK 250935Z AUTO 26004KT 10SM -SN CLR 09/04 A2998 RMK AO2
KGAI - Gaithersburg - 26 miles SW
Updated: Sat, 10/25/2014 5:55 AM
Clear
Clear
 Wind from calm
Wind: Calm
Temperature: 41°F
Dew Point: 36°F
Humidity: 81%
Barometer: 29.99 inHg
Clouds: Clear
Visibility: 10 miles
2014/10/25 09:55 KGAI 250955Z 00000KT 10SM CLR 05/02 A2999 RMK AO1
 
KBWI - BWI Airport - 15 miles SE
Updated: Sat, 10/25/2014 5:54 AM
Clear
Clear
 Wind from calm
Wind: Calm
Temperature: 46°F
Dew Point: 37°F
Humidity: 71%
Barometer: 29.94 inHg
Clouds: Clear
Visibility: 10 miles
2014/10/25 09:54 KBWI 250954Z 00000KT 10SM CLR 08/03 A2994 RMK AO2 SLP137 T00780033
KNAK - Annapolis - 32 miles SSE
Updated: Sat, 10/25/2014 5:54 AM
Clear
Clear
 Wind from calm
Wind: Calm
Temperature: 48°F
Dew Point: 39°F
Humidity: 71%
Barometer: 29.94 inHg
Clouds: Clear
Visibility: 10 miles
2014/10/25 09:54 KNAK 250954Z AUTO 00000KT 10SM CLR 09/04 A2994 RMK AO2 SLP140 T00940039
 
KESN - Easton - 63 miles SE
Updated: Sat, 10/25/2014 5:55 AM
Clear
Clear
 Wind from calm
Wind: Calm
Temperature: 48°F
Dew Point: 45°F
Humidity: 87%
Barometer: 29.97 inHg
Clouds: Clear
Visibility: 10 miles
2014/10/25 09:55 KESN 250955Z 00000KT 10SM SKC 09/07 A2997
KSBY - Salisbury - 112 miles SE
Updated: Sat, 10/25/2014 5:54 AM
Clear
Clear
 Wind from calm
Wind: Calm
Temperature: 46°F
Dew Point: 39°F
Humidity: 76%
Barometer: 29.94 inHg
Clouds: Clear
Visibility: 10 miles
2014/10/25 09:54 KSBY 250954Z 00000KT 10SM CLR 08/04 A2994 RMK AO2 SLP139 T00780039